Joy, Illinois
Current Conditions -  °F | °C
As of 12:35 PM on Sunday 23 Nov 2014 (Local Time) from KMUT Reporting Station
Light Rain Light Rain  
Wind Chill: 52°   Ceiling: 500
Heat Index: 52°   Visibility: 2.5mi
Dew Point: 50°   Wind: 6mph
Humidity: 94%   Direction: 160°SSE
Pressure: 29.44"   Gusts: 12mph
Location:  41.2°N, 90.88°W
Report Text: KMUT 231835Z AUTO 16005G10KT 2 1/2SM -RA OVC005 11/10 A2944 RMK AO2
Loading
Personal Weather Stations






























Interactive Weather Map New forecast layout! Learn more

10-Day Weather Forecast

Advertisements
Track Severe Weather on mobile